Time;durP1;ratioP1;P1;durP2;ratioP2;P2;SDS_P1;SDS_P2;PMS_P1;PMS_P2;Temp;Humidity;BMP_temperature;BMP_pressure;BME280_temperature;BME280_humidity;BME280_pressure;Samples;Min_cycle;Max_cycle;Signal;HPM_P1;HPM_P2
2024/04/02 00:01:46;;;;;;;3.25;1.20;;;;;;;7.89;71.42;98255.69;4999276;28;20099;-44
2024/04/02 00:04:15;;;;;;;1.65;0.88;;;;;;;7.86;71.59;98254.94;4999451;28;20045;-43
2024/04/02 00:06:42;;;;;;;2.83;0.88;;;;;;;7.83;71.81;98255.81;4997508;28;20511;-42
2024/04/02 00:09:08;;;;;;;3.78;1.25;;;;;;;7.78;71.96;98252.50;4997641;28;20117;-43
2024/04/02 00:11:34;;;;;;;5.25;1.25;;;;;;;7.75;71.80;98253.41;4993434;28;20103;-41
2024/04/02 00:14:00;;;;;;;4.82;1.40;;;;;;;7.72;71.85;98256.91;5000356;28;20073;-42
2024/04/02 00:16:26;;;;;;;5.20;1.50;;;;;;;7.69;71.14;98251.78;4997070;28;20132;-44
2024/04/02 00:18:52;;;;;;;2.65;0.70;;;;;;;7.68;71.77;98256.97;4993537;28;20050;-44
2024/04/02 00:21:20;;;;;;;4.53;1.50;;;;;;;7.65;71.21;98263.03;4996418;28;20046;-42
2024/04/02 00:23:46;;;;;;;5.03;1.13;;;;;;;7.64;70.73;98265.66;4977030;28;20580;-40
2024/04/02 00:26:12;;;;;;;2.47;1.33;;;;;;;7.62;71.06;98262.25;4993057;28;20152;-46
2024/04/02 00:28:38;;;;;;;7.00;1.40;;;;;;;7.61;70.93;98261.41;4983359;28;20389;-43
2024/04/02 00:31:06;;;;;;;5.55;1.00;;;;;;;7.60;71.25;98262.25;4982185;28;20411;-41
2024/04/02 00:33:32;;;;;;;5.80;0.82;;;;;;;7.59;70.80;98268.31;4980262;28;20100;-44
2024/04/02 00:36:06;;;;;;;1.95;0.95;;;;;;;7.56;72.05;98265.78;4979621;28;20054;-43
2024/04/02 00:38:32;;;;;;;5.80;1.08;;;;;;;7.55;70.92;98262.38;4998213;28;20045;-43
2024/04/02 00:40:59;;;;;;;3.13;1.17;;;;;;;7.53;72.10;98271.03;4999360;28;20069;-42
2024/04/02 00:43:26;;;;;;;3.13;0.85;;;;;;;7.51;71.04;98262.47;4998278;28;20073;-41
2024/04/02 00:45:52;;;;;;;2.50;0.85;;;;;;;7.50;71.33;98264.16;4995602;28;20656;-41
2024/04/02 00:48:18;;;;;;;3.20;0.88;;;;;;;7.50;71.27;98274.47;5000272;28;20056;-43
2024/04/02 00:50:45;;;;;;;1.83;0.68;;;;;;;7.48;72.05;98268.53;4987529;28;20146;-42
2024/04/02 00:53:12;;;;;;;8.70;1.17;;;;;;;7.46;72.13;98271.13;5003772;28;20068;-42
2024/04/02 00:55:38;;;;;;;2.80;1.05;;;;;;;7.47;71.91;98271.97;4997809;28;20159;-42
2024/04/02 00:58:06;;;;;;;5.13;1.50;;;;;;;7.45;71.27;98269.44;5000944;28;20046;-41
2024/04/02 01:00:35;;;;;;;3.83;1.35;;;;;;;7.46;72.17;98272.84;4982639;28;20045;-43
2024/04/02 01:03:03;;;;;;;4.13;1.35;;;;;;;7.46;71.65;98271.13;5001378;28;20042;-42
2024/04/02 01:05:29;;;;;;;5.78;1.55;;;;;;;7.48;71.42;98275.38;5000713;28;20069;-43
2024/04/02 01:07:54;;;;;;;4.50;0.80;;;;;;;7.48;72.18;98276.25;5002409;28;20418;-41
2024/04/02 01:10:20;;;;;;;5.88;1.20;;;;;;;7.50;71.68;98268.50;5000676;28;20048;-42
2024/04/02 01:12:46;;;;;;;3.05;1.17;;;;;;;7.51;72.17;98275.34;5002632;28;20052;-44
2024/04/02 01:15:11;;;;;;;1.38;1.17;;;;;;;7.52;72.33;98269.28;5003372;28;20046;-43
2024/04/02 01:17:37;;;;;;;4.03;1.63;;;;;;;7.53;71.01;98268.44;4993644;28;20061;-40
2024/04/02 01:20:03;;;;;;;5.85;1.02;;;;;;;7.53;71.18;98276.16;4994653;28;20322;-42
2024/04/02 01:22:30;;;;;;;2.10;0.90;;;;;;;7.53;72.36;98273.59;5003739;28;20054;-41
2024/04/02 01:24:59;;;;;;;3.70;0.93;;;;;;;7.50;71.85;98276.22;5000183;28;20042;-42
2024/04/02 01:27:26;;;;;;;1.92;1.13;;;;;;;7.49;71.56;98272.78;5000853;28;20066;-42
2024/04/02 01:29:53;;;;;;;3.72;0.93;;;;;;;7.49;71.30;98274.53;4981162;28;20038;-42
2024/04/02 01:32:19;;;;;;;3.10;1.13;;;;;;;7.49;71.78;98277.13;5004814;28;20049;-42
2024/04/02 01:34:45;;;;;;;4.53;1.25;;;;;;;7.49;71.76;98279.69;5004144;28;20061;-43
2024/04/02 01:37:10;;;;;;;3.40;1.33;;;;;;;7.50;72.31;98283.94;4994797;28;20050;-42
2024/04/02 01:39:36;;;;;;;3.55;0.73;;;;;;;7.51;71.60;98285.63;4997230;28;20049;-42
2024/04/02 01:42:02;;;;;;;4.93;1.38;;;;;;;7.53;72.69;98283.91;5004534;28;20136;-42
2024/04/02 01:44:27;;;;;;;4.22;1.27;;;;;;;7.55;72.06;98288.13;5000925;28;20458;-41
2024/04/02 01:46:53;;;;;;;6.72;1.40;;;;;;;7.57;72.00;98280.38;5003945;28;20169;-41
2024/04/02 01:49:18;;;;;;;5.82;1.50;;;;;;;7.59;71.67;98284.63;5006767;28;20058;-41
2024/04/02 01:51:45;;;;;;;5.50;1.13;;;;;;;7.62;71.68;98283.72;5006422;28;20120;-47
2024/04/02 01:54:11;;;;;;;6.38;1.20;;;;;;;7.63;72.12;98284.56;5005277;28;20050;-43
2024/04/02 01:56:36;;;;;;;5.70;1.52;;;;;;;7.66;71.90;98285.34;5007117;28;20091;-42
2024/04/02 01:59:02;;;;;;;6.05;1.30;;;;;;;7.68;72.28;98283.59;5007986;28;20758;-44
2024/04/02 02:01:28;;;;;;;9.35;1.55;;;;;;;7.68;71.99;98278.44;5006072;28;20092;-43
2024/04/02 02:03:53;;;;;;;4.03;1.10;;;;;;;7.69;71.79;98280.16;5002380;28;20038;-42
2024/04/02 02:06:19;;;;;;;3.65;0.90;;;;;;;7.72;71.86;98281.81;5002845;28;20065;-46
2024/04/02 02:08:44;;;;;;;7.70;1.13;;;;;;;7.72;71.46;98277.50;5005701;28;20041;-42
2024/04/02 02:11:10;;;;;;;4.80;1.70;;;;;;;7.75;72.39;98283.47;4997504;28;20097;-42
2024/04/02 02:13:36;;;;;;;3.70;0.88;;;;;;;7.78;72.50;98293.72;5000426;28;20046;-47
2024/04/02 02:16:02;;;;;;;6.05;1.65;;;;;;;7.79;71.63;98291.13;5004776;28;20034;-42
2024/04/02 02:18:29;;;;;;;3.67;1.23;;;;;;;7.82;72.50;98295.34;4984679;28;20061;-43
2024/04/02 02:20:56;;;;;;;4.18;0.80;;;;;;;7.85;72.24;98295.31;4989277;28;20048;-42
2024/04/02 02:23:22;;;;;;;9.48;1.83;;;;;;;7.88;71.50;98295.25;4998211;28;20097;-43
2024/04/02 02:25:49;;;;;;;3.67;1.88;;;;;;;7.89;72.40;98296.94;5001204;28;20058;-45
2024/04/02 02:28:14;;;;;;;7.38;1.05;;;;;;;7.90;72.28;98297.81;5001409;28;20046;-43
2024/04/02 02:30:40;;;;;;;5.05;1.25;;;;;;;7.91;72.67;98295.16;5007071;28;20157;-43
2024/04/02 02:33:06;;;;;;;6.35;1.23;;;;;;;7.91;71.81;98300.31;4993168;28;20057;-42
2024/04/02 02:35:31;;;;;;;3.00;0.90;;;;;;;7.91;72.27;98300.31;5003637;28;20125;-42
2024/04/02 02:37:58;;;;;;;4.10;1.52;;;;;;;7.91;72.11;98305.47;4999897;28;20061;-44
2024/04/02 02:40:24;;;;;;;2.05;0.90;;;;;;;7.91;71.94;98305.47;5003951;28;20481;-40
2024/04/02 02:42:49;;;;;;;3.85;1.17;;;;;;;7.92;72.83;98306.34;5006134;28;20541;-42
2024/04/02 02:45:15;;;;;;;8.95;1.38;;;;;;;7.91;71.91;98308.06;5002368;28;20054;-41
2024/04/02 02:47:40;;;;;;;4.20;1.95;;;;;;;7.91;72.25;98300.31;5004042;28;20065;-41
2024/04/02 02:50:06;;;;;;;2.88;0.95;;;;;;;7.91;72.67;98308.06;5007090;28;20058;-43
2024/04/02 02:52:32;;;;;;;3.92;1.55;;;;;;;7.93;72.55;98300.28;5003986;28;20060;-42
2024/04/02 02:54:58;;;;;;;7.07;1.35;;;;;;;7.93;72.01;98303.72;5005234;28;20054;-42
2024/04/02 02:57:23;;;;;;;6.53;1.17;;;;;;;7.95;72.55;98306.28;5006137;28;20494;-41
2024/04/02 02:59:49;;;;;;;4.38;1.55;;;;;;;7.96;72.88;98308.84;4998969;28;20081;-41
2024/04/02 03:02:15;;;;;;;5.32;1.52;;;;;;;7.97;71.83;98304.50;5001966;28;20061;-44
2024/04/02 03:04:41;;;;;;;3.17;0.93;;;;;;;7.98;72.74;98301.91;5002429;28;20064;-41
2024/04/02 03:07:07;;;;;;;4.43;1.83;;;;;;;7.98;71.86;98301.91;4996213;28;20154;-43
2024/04/02 03:09:36;;;;;;;5.15;2.25;;;;;;;7.98;72.29;98301.91;4998933;28;20089;-42
2024/04/02 03:12:02;;;;;;;3.25;1.55;;;;;;;8.00;72.88;98303.63;5005790;28;20052;-41
2024/04/02 03:14:29;;;;;;;4.13;1.70;;;;;;;8.01;72.23;98297.56;5005434;28;20119;-46
2024/04/02 03:16:55;;;;;;;7.65;1.83;;;;;;;8.01;72.90;98301.00;5006252;28;20056;-40
2024/04/02 03:19:20;;;;;;;7.15;1.70;;;;;;;8.01;72.61;98301.00;5004065;28;20141;-44
2024/04/02 03:21:46;;;;;;;5.78;1.60;;;;;;;8.01;72.65;98305.31;5001827;28;20427;-42
2024/04/02 03:24:12;;;;;;;5.85;1.77;;;;;;;8.01;72.66;98306.16;5002670;28;20044;-44
2024/04/02 03:26:38;;;;;;;8.30;1.60;;;;;;;8.02;73.01;98307.84;5001721;28;20054;-43
2024/04/02 03:29:03;;;;;;;4.57;1.30;;;;;;;8.02;72.45;98301.84;5005475;28;20057;-42
2024/04/02 03:31:29;;;;;;;5.05;2.42;;;;;;;8.01;72.27;98310.47;4995690;28;20050;-43
2024/04/02 03:33:57;;;;;;;4.85;1.77;;;;;;;8.01;73.00;98310.47;4991027;28;20046;-44
2024/04/02 03:36:23;;;;;;;4.07;1.55;;;;;;;8.01;73.37;98305.31;5001771;28;20038;-43
2024/04/02 03:38:48;;;;;;;4.25;1.55;;;;;;;8.02;73.32;98315.59;5005720;28;20133;-42
2024/04/02 03:41:15;;;;;;;9.05;2.15;;;;;;;8.02;73.21;98310.44;5005663;28;20498;-42
2024/04/02 03:43:42;;;;;;;3.45;1.30;;;;;;;8.04;72.69;98315.56;4996375;28;20422;-42
2024/04/02 03:46:08;;;;;;;4.70;1.70;;;;;;;8.05;72.41;98317.25;4997786;28;20073;-43
2024/04/02 03:48:34;;;;;;;5.65;2.47;;;;;;;8.07;73.03;98310.34;4989079;28;20050;-42
2024/04/02 03:51:00;;;;;;;6.28;1.65;;;;;;;8.06;72.94;98316.38;4986912;28;20503;-41
2024/04/02 03:53:26;;;;;;;4.25;1.88;;;;;;;8.05;72.92;98325.00;5005233;28;20050;-43
2024/04/02 03:55:57;;;;;;;5.93;2.15;;;;;;;8.03;72.17;98324.16;5003417;28;20053;-43
2024/04/02 03:58:23;;;;;;;7.63;2.08;;;;;;;8.01;72.30;98325.94;5004868;28;20061;-44
2024/04/02 04:00:49;;;;;;;6.03;2.38;;;;;;;7.99;72.63;98320.81;4988487;28;20427;-43
2024/04/02 04:03:16;;;;;;;7.57;1.88;;;;;;;7.97;72.39;98323.41;4996201;28;20078;-43
2024/04/02 04:05:43;;;;;;;6.90;2.28;;;;;;;7.98;73.34;98319.94;5002094;28;20422;-41
2024/04/02 04:08:09;;;;;;;7.47;2.42;;;;;;;7.97;72.94;98326.00;5002693;28;20068;-44
2024/04/02 04:10:37;;;;;;;8.30;2.03;;;;;;;7.96;72.64;98334.63;4988055;28;20673;-42
2024/04/02 04:13:02;;;;;;;6.30;1.65;;;;;;;7.95;72.25;98338.06;4987856;28;20062;-42
2024/04/02 04:15:28;;;;;;;7.43;1.58;;;;;;;7.94;72.99;98341.50;4979508;28;20058;-42
2024/04/02 04:17:54;;;;;;;4.68;2.45;;;;;;;7.92;73.26;98339.84;5002099;28;20107;-43
2024/04/02 04:20:19;;;;;;;5.03;1.88;;;;;;;7.90;72.78;98347.59;4996440;28;20054;-42
2024/04/02 04:22:45;;;;;;;5.00;2.38;;;;;;;7.88;73.27;98351.09;5001114;28;20065;-44
2024/04/02 04:25:12;;;;;;;12.98;2.38;;;;;;;7.88;72.92;98351.97;4992492;28;20041;-45
2024/04/02 04:27:38;;;;;;;6.18;2.72;;;;;;;7.90;73.13;98355.34;4999013;28;20065;-44
2024/04/02 04:30:05;;;;;;;10.05;2.35;;;;;;;7.90;72.59;98355.34;5001177;28;20042;-43
2024/04/02 04:32:32;;;;;;;5.63;2.85;;;;;;;7.89;73.41;98345.91;5003291;28;20097;-41
2024/04/02 04:34:58;;;;;;;8.45;3.10;;;;;;;7.90;72.98;98359.66;4998636;28;20057;-44
2024/04/02 04:37:24;;;;;;;6.28;2.63;;;;;;;7.87;73.43;98359.72;4997858;28;20069;-42
2024/04/02 04:39:50;;;;;;;5.60;2.65;;;;;;;7.85;73.31;98357.16;5004780;28;20049;-43
2024/04/02 04:42:16;;;;;;;8.50;3.00;;;;;;;7.83;73.70;98358.91;4997505;28;20042;-42
2024/04/02 04:44:43;;;;;;;6.20;2.40;;;;;;;7.81;72.66;98360.69;5002161;28;20044;-41
2024/04/02 04:47:10;;;;;;;6.95;1.95;;;;;;;7.79;72.68;98365.88;5000024;28;20054;-43
2024/04/02 04:49:35;;;;;;;6.60;2.08;;;;;;;7.77;73.22;98374.50;4998982;28;20046;-44
2024/04/02 04:52:01;;;;;;;6.32;2.67;;;;;;;7.75;72.87;98373.66;5002743;28;20049;-44
2024/04/02 04:54:27;;;;;;;7.93;2.28;;;;;;;7.74;73.03;98375.41;5006152;28;20057;-42
2024/04/02 04:56:52;;;;;;;4.70;2.53;;;;;;;7.74;73.11;98382.28;4996181;28;20045;-42
2024/04/02 04:59:18;;;;;;;6.25;1.88;;;;;;;7.74;72.44;98390.03;5003517;28;20225;-41
2024/04/02 05:01:44;;;;;;;6.82;2.15;;;;;;;7.74;72.87;98384.88;4976566;28;20072;-42
2024/04/02 05:04:09;;;;;;;5.82;1.70;;;;;;;7.74;72.67;98392.59;5003567;28;20056;-41
2024/04/02 05:06:38;;;;;;;6.13;2.17;;;;;;;7.76;73.58;98398.56;4998678;28;20049;-44
2024/04/02 05:09:04;;;;;;;6.93;3.20;;;;;;;7.77;73.39;98400.28;4996313;28;20042;-41
2024/04/02 05:11:30;;;;;;;6.95;3.45;;;;;;;7.78;73.38;98402.84;4998279;28;20049;-42
2024/04/02 05:13:57;;;;;;;8.40;3.00;;;;;;;7.78;72.78;98399.41;4991126;28;20058;-43
2024/04/02 05:16:23;;;;;;;6.43;3.35;;;;;;;7.81;73.07;98401.94;5005706;28;20065;-43
2024/04/02 05:18:49;;;;;;;8.90;2.60;;;;;;;7.83;72.96;98405.31;5004048;28;20042;-41
2024/04/02 05:21:14;;;;;;;5.18;2.20;;;;;;;7.85;73.15;98398.41;5002135;28;20618;-42
2024/04/02 05:23:40;;;;;;;10.15;2.38;;;;;;;7.89;72.87;98402.63;5006455;28;20049;-41
2024/04/02 05:26:08;;;;;;;5.32;2.25;;;;;;;7.91;73.21;98408.59;5003100;28;20058;-44
2024/04/02 05:28:33;;;;;;;5.15;1.60;;;;;;;7.93;73.71;98406.84;4998148;28;20069;-42
2024/04/02 05:30:59;;;;;;;9.25;2.10;;;;;;;7.94;73.19;98403.38;4999589;28;20035;-41
2024/04/02 05:33:25;;;;;;;6.05;1.45;;;;;;;7.93;73.68;98399.13;5000823;28;20825;-42
2024/04/02 05:35:50;;;;;;;7.32;2.17;;;;;;;7.93;74.17;98401.69;5007994;28;20053;-45
2024/04/02 05:38:16;;;;;;;8.48;2.40;;;;;;;7.93;74.20;98406.00;5008760;28;20053;-41
2024/04/02 05:40:42;;;;;;;2.03;1.20;;;;;;;7.92;73.75;98412.88;5009323;28;20053;-43
2024/04/02 05:43:07;;;;;;;6.70;1.60;;;;;;;7.93;73.66;98427.47;5007495;28;20527;-43
2024/04/02 05:45:33;;;;;;;8.60;6.07;;;;;;;7.94;73.31;98428.34;5008233;28;20077;-42
2024/04/02 05:47:59;;;;;;;8.80;4.40;;;;;;;7.94;73.89;98434.31;5007674;28;20099;-42
2024/04/02 05:50:24;;;;;;;22.48;11.60;;;;;;;7.95;73.89;98430.88;5000880;28;20093;-42
2024/04/02 05:52:50;;;;;;;13.18;6.47;;;;;;;7.94;73.62;98434.31;5007344;28;20427;-45
2024/04/02 05:55:17;;;;;;;7.28;3.72;;;;;;;7.94;74.00;98436.91;4996806;28;20045;-42
2024/04/02 05:57:42;;;;;;;5.93;1.95;;;;;;;7.94;74.41;98438.66;5003531;28;21317;-41
2024/04/02 06:00:10;;;;;;;5.68;2.78;;;;;;;7.93;73.61;98435.22;4998439;28;20054;-42
2024/04/02 06:02:37;;;;;;;8.20;2.83;;;;;;;7.92;74.47;98435.22;4995193;28;20503;-45
2024/04/02 06:05:03;;;;;;;4.63;2.47;;;;;;;7.89;74.57;98446.47;5006101;28;20058;-42
2024/04/02 06:07:28;;;;;;;8.52;2.97;;;;;;;7.86;73.67;98449.06;5002408;28;20088;-42
2024/04/02 06:09:54;;;;;;;5.25;2.80;;;;;;;7.85;73.48;98455.13;4996983;28;20160;-43
2024/04/02 06:12:20;;;;;;;11.38;2.80;;;;;;;7.83;74.35;98454.28;5004699;28;20406;-43
2024/04/02 06:14:47;;;;;;;18.45;8.38;;;;;;;7.83;73.53;98464.59;5001074;28;20073;-41
2024/04/02 06:17:13;;;;;;;15.05;6.88;;;;;;;7.85;73.71;98470.59;5001187;28;20530;-43
2024/04/02 06:19:39;;;;;;;18.58;10.25;;;;;;;7.88;74.12;98470.53;4995660;28;20061;-43
2024/04/02 06:22:05;;;;;;;9.68;3.90;;;;;;;7.93;74.10;98479.03;5007322;28;20549;-41
2024/04/02 06:24:30;;;;;;;6.22;2.58;;;;;;;7.94;74.96;98478.16;4972551;28;20042;-44
2024/04/02 06:26:56;;;;;;;8.45;3.50;;;;;;;7.94;74.44;98491.03;5002675;28;20483;-43
2024/04/02 06:29:21;;;;;;;10.52;4.43;;;;;;;7.97;74.78;98503.03;4999018;28;20048;-42
2024/04/02 06:31:47;;;;;;;7.00;2.70;;;;;;;8.06;73.87;98499.44;5005721;28;20159;-41
2024/04/02 06:34:13;;;;;;;9.65;3.60;;;;;;;8.17;75.04;98507.84;5004782;28;20145;-43
2024/04/02 06:36:39;;;;;;;12.25;7.35;;;;;;;8.28;75.09;98514.56;4996805;28;20073;-44
2024/04/02 06:39:05;;;;;;;9.13;4.95;;;;;;;8.33;74.86;98517.88;5001115;28;20053;-41
2024/04/02 06:41:30;;;;;;;8.15;4.30;;;;;;;8.34;74.96;98520.44;4990288;28;20057;-41
2024/04/02 06:43:56;;;;;;;10.93;3.75;;;;;;;8.37;74.54;98519.53;5005299;28;20046;-45
2024/04/02 06:46:24;;;;;;;6.20;3.70;;;;;;;8.32;75.34;98521.34;5007851;28;20061;-41
2024/04/02 06:48:50;;;;;;;10.77;4.65;;;;;;;8.29;76.18;98529.13;5005087;28;20046;-42
2024/04/02 06:51:16;;;;;;;6.72;3.60;;;;;;;8.27;75.76;98538.66;4996534;28;20105;-42
2024/04/02 06:53:42;;;;;;;8.23;3.05;;;;;;;8.28;75.29;98540.34;5002428;28;20053;-46
2024/04/02 06:56:08;;;;;;;7.00;2.95;;;;;;;8.32;76.67;98552.31;4998601;28;20566;-44
2024/04/02 06:58:34;;;;;;;11.50;3.80;;;;;;;8.43;75.56;98550.38;4980069;28;20092;-42
2024/04/02 07:01:00;;;;;;;10.88;6.15;;;;;;;8.58;75.68;98556.19;4999545;28;20096;-41
2024/04/02 07:03:26;;;;;;;13.02;7.03;;;;;;;8.63;76.45;98567.25;4996097;28;20057;-41
2024/04/02 07:05:53;;;;;;;8.18;4.90;;;;;;;8.62;76.84;98565.56;5004594;28;20053;-42
2024/04/02 07:08:28;;;;;;;11.38;5.97;;;;;;;8.66;76.44;98559.47;5006771;28;20053;-43
2024/04/02 07:10:58;;;;;;;8.48;3.25;;;;;;;8.58;76.90;98569.09;4974172;28;20062;-43
2024/04/02 07:13:25;;;;;;;11.15;3.95;;;;;;;8.59;76.34;98575.94;5005901;28;20056;-41
2024/04/02 07:15:51;;;;;;;6.72;4.28;;;;;;;8.62;76.74;98575.91;5003435;28;20056;-42
2024/04/02 07:18:17;;;;;;;7.60;2.65;;;;;;;8.66;76.47;98582.69;5006334;28;20049;-41
2024/04/02 07:20:42;;;;;;;8.20;2.92;;;;;;;8.68;76.60;98586.09;5004864;28;20049;-44
2024/04/02 07:23:08;;;;;;;6.57;3.67;;;;;;;8.72;77.03;98586.91;4998980;28;20054;-44
2024/04/02 07:25:34;;;;;;;9.02;3.20;;;;;;;8.74;76.81;98592.88;5006045;28;20103;-41
2024/04/02 07:27:59;;;;;;;11.20;2.45;;;;;;;8.77;76.78;98595.41;5003264;28;20049;-43
2024/04/02 07:30:27;;;;;;;9.18;3.60;;;;;;;8.84;76.95;98596.13;5002083;28;20069;-44
2024/04/02 07:32:53;;;;;;;8.00;3.60;;;;;;;8.90;76.25;98605.47;5001834;28;20042;-45
2024/04/02 07:35:18;;;;;;;8.75;3.83;;;;;;;8.96;76.24;98608.81;5001453;28;20050;-42
2024/04/02 07:37:44;;;;;;;8.77;3.80;;;;;;;8.99;75.78;98611.31;5002098;28;20058;-41
2024/04/02 07:40:10;;;;;;;6.40;2.55;;;;;;;9.00;77.12;98623.38;5000839;28;20037;-43
2024/04/02 07:42:35;;;;;;;9.98;4.13;;;;;;;9.06;76.64;98624.13;4999864;28;20057;-42
2024/04/02 07:45:01;;;;;;;8.80;3.42;;;;;;;9.10;76.30;98628.34;5000817;28;20084;-41
2024/04/02 07:47:27;;;;;;;5.78;2.97;;;;;;;9.10;76.05;98623.19;5004276;28;20085;-43
2024/04/02 07:49:52;;;;;;;7.55;2.13;;;;;;;9.13;76.25;98628.28;5002737;28;20478;-42
2024/04/02 07:52:18;;;;;;;9.18;3.10;;;;;;;9.22;75.80;98625.53;5002293;28;20058;-43
2024/04/02 07:54:44;;;;;;;19.02;7.90;;;;;;;9.38;75.97;98628.66;5005894;28;20089;-45
2024/04/02 07:57:09;;;;;;;12.15;5.90;;;;;;;9.52;76.39;98630.94;5002357;28;20038;-43
2024/04/02 07:59:35;;;;;;;12.43;4.78;;;;;;;9.76;75.29;98639.03;5000824;28;20056;-41
2024/04/02 08:02:01;;;;;;;12.07;5.90;;;;;;;9.97;75.15;98642.03;5001270;28;20049;-43
2024/04/02 08:04:27;;;;;;;6.18;2.97;;;;;;;10.31;75.89;98648.16;5000679;28;20045;-44
2024/04/02 08:06:53;;;;;;;6.63;3.90;;;;;;;10.46;75.08;98653.84;5000159;28;20087;-44
2024/04/02 08:09:19;;;;;;;10.00;4.72;;;;;;;10.65;74.70;98649.09;5002742;28;20586;-43
2024/04/02 08:11:44;;;;;;;7.20;3.05;;;;;;;11.19;73.89;98657.16;5004190;28;20084;-43
2024/04/02 08:14:10;;;;;;;10.30;4.90;;;;;;;11.79;74.41;98667.53;4999362;28;20088;-43
2024/04/02 08:16:36;;;;;;;10.82;4.97;;;;;;;12.01;72.31;98671.22;4997850;28;20214;-42
2024/04/02 08:19:02;;;;;;;6.70;2.30;;;;;;;12.38;72.71;98674.44;4979216;28;20121;-44
2024/04/02 08:21:28;;;;;;;9.80;4.03;;;;;;;12.68;71.25;98664.81;5002105;28;20294;-44
2024/04/02 08:23:53;;;;;;;8.00;4.10;;;;;;;13.00;70.16;98680.19;5002031;28;20423;-42
2024/04/02 08:26:19;;;;;;;6.43;3.08;;;;;;;13.09;69.79;98687.66;5000244;28;20195;-43
2024/04/02 08:28:45;;;;;;;8.45;4.05;;;;;;;13.06;69.97;98694.72;4997801;28;20759;-46
2024/04/02 08:31:11;;;;;;;6.50;2.60;;;;;;;12.97;69.66;98695.91;4999303;28;20514;-42
2024/04/02 08:33:37;;;;;;;12.82;5.30;;;;;;;12.97;69.31;98701.09;4996899;28;20049;-45
2024/04/02 08:36:03;;;;;;;6.60;2.75;;;;;;;13.10;69.90;98704.97;4999344;28;20079;-43
2024/04/02 08:38:29;;;;;;;7.72;3.25;;;;;;;13.18;69.59;98703.84;4996293;28;20061;-43
2024/04/02 08:41:03;;;;;;;6.78;1.92;;;;;;;13.24;69.36;98703.59;5000186;28;20402;-41
2024/04/02 08:43:30;;;;;;;4.85;2.13;;;;;;;13.36;69.48;98698.00;5000264;28;20053;-43
2024/04/02 08:45:59;;;;;;;7.25;3.53;;;;;;;13.67;68.61;98705.59;4982110;28;20060;-45
2024/04/02 08:48:25;;;;;;;7.15;3.03;;;;;;;13.91;68.19;98705.59;4983728;28;20068;-42
2024/04/02 08:50:53;;;;;;;6.22;1.20;;;;;;;14.48;67.35;98705.09;4995214;28;20147;-41
2024/04/02 08:53:19;;;;;;;4.93;2.15;;;;;;;14.64;65.88;98711.41;4984960;28;20054;-46
2024/04/02 08:55:46;;;;;;;4.85;2.47;;;;;;;14.88;65.94;98716.53;5003643;28;20046;-43
2024/04/02 08:58:12;;;;;;;3.30;1.45;;;;;;;15.23;65.47;98715.09;4980420;28;20045;-44
2024/04/02 09:00:39;;;;;;;4.78;3.05;;;;;;;15.80;64.28;98722.13;4994902;28;20120;-43
2024/04/02 09:03:10;;;;;;;4.20;2.50;;;;;;;16.50;64.15;98712.84;4992626;28;20451;-42
2024/04/02 09:05:36;;;;;;;3.83;1.30;;;;;;;17.25;62.93;98714.41;4996044;28;20050;-42
2024/04/02 09:08:06;;;;;;;4.00;1.42;;;;;;;17.33;61.28;98717.47;5003199;28;20064;-42
2024/04/02 09:10:32;;;;;;;9.35;3.92;;;;;;;17.24;60.46;98717.94;5001342;28;20080;-43
2024/04/02 09:12:57;;;;;;;6.35;3.33;;;;;;;16.88;60.23;98731.00;4997691;28;20495;-48
2024/04/02 09:15:23;;;;;;;4.93;1.58;;;;;;;16.35;59.64;98725.72;5001498;28;20059;-44
2024/04/02 09:17:49;;;;;;;5.75;1.75;;;;;;;16.04;60.71;98732.38;4997523;28;20038;-43
2024/04/02 09:20:14;;;;;;;4.72;2.38;;;;;;;15.71;60.61;98735.63;4996732;28;20050;-44
2024/04/02 09:22:41;;;;;;;4.05;2.00;;;;;;;15.41;61.49;98739.53;4996852;28;20053;-43
2024/04/02 09:25:09;;;;;;;6.22;2.05;;;;;;;15.28;61.80;98739.22;4986962;28;20507;-43
2024/04/02 09:27:35;;;;;;;4.15;2.30;;;;;;;15.12;61.45;98747.69;4974582;28;20050;-43
2024/04/02 09:30:01;;;;;;;6.35;4.32;;;;;;;15.10;61.87;98749.50;5000330;28;20539;-43
2024/04/02 09:32:28;;;;;;;4.70;3.45;;;;;;;15.54;62.22;98755.50;5000804;28;20050;-42
2024/04/02 09:34:56;;;;;;;5.63;3.28;;;;;;;16.32;61.13;98752.03;5003519;28;20103;-42
2024/04/02 09:40:01;;;;;;;6.80;3.58;;;;;;;17.45;59.06;98753.47;4986450;28;20412;-42
2024/04/02 09:42:27;;;;;;;5.43;3.85;;;;;;;17.37;58.48;98765.25;4979990;28;20070;-41
2024/04/02 09:44:55;;;;;;;4.50;2.78;;;;;;;17.44;57.87;98759.63;4974025;28;20054;-43
2024/04/02 09:47:22;;;;;;;5.03;3.40;;;;;;;17.32;57.88;98757.63;4975392;28;20074;-42
2024/04/02 09:49:49;;;;;;;4.55;4.15;;;;;;;17.34;58.48;98756.66;4979366;28;20066;-41
2024/04/02 09:52:15;;;;;;;6.03;3.80;;;;;;;17.55;57.13;98761.69;4978744;28;20051;-43
2024/04/02 09:54:42;;;;;;;5.80;4.03;;;;;;;17.56;56.59;98765.97;4971519;28;20045;-43
2024/04/02 09:57:10;;;;;;;7.90;4.30;;;;;;;17.75;56.79;98761.53;4973853;28;20451;-42
2024/04/02 09:59:38;;;;;;;4.28;3.88;;;;;;;18.14;55.67;98770.84;4973048;28;20102;-43
2024/04/02 10:02:07;;;;;;;8.13;4.25;;;;;;;18.49;55.82;98768.03;4972852;28;20058;-42
2024/04/02 10:04:33;;;;;;;4.00;3.60;;;;;;;18.55;55.14;98776.47;4962048;28;20051;-44
2024/04/02 10:07:00;;;;;;;6.63;4.03;;;;;;;18.57;54.08;98777.22;4972360;28;20074;-43
2024/04/02 10:09:26;;;;;;;6.93;3.47;;;;;;;18.54;52.91;98773.00;4972700;28;20628;-43
2024/04/02 10:11:52;;;;;;;4.43;3.63;;;;;;;18.55;53.69;98779.97;4977638;28;20089;-41
2024/04/02 10:14:20;;;;;;;3.88;3.58;;;;;;;18.32;53.65;98789.09;4979392;28;20050;-44
2024/04/02 10:16:48;;;;;;;6.68;2.55;;;;;;;18.17;53.13;98786.38;4975845;28;20679;-44
2024/04/02 10:19:19;;;;;;;5.38;2.97;;;;;;;18.09;52.90;98784.19;4972629;28;20411;-43
2024/04/02 10:21:47;;;;;;;6.13;3.67;;;;;;;18.02;53.39;98787.19;5008755;28;20060;-44
2024/04/02 10:24:15;;;;;;;5.95;3.67;;;;;;;18.05;54.39;98792.25;4981785;28;20042;-42
2024/04/02 10:26:42;;;;;;;5.43;3.67;;;;;;;18.28;55.04;98800.69;4997234;28;20042;-43
2024/04/02 10:29:08;;;;;;;5.45;4.57;;;;;;;18.47;54.52;98798.72;4980553;28;20050;-42
2024/04/02 10:31:38;;;;;;;7.95;5.70;;;;;;;18.42;52.48;98806.00;4994293;28;20057;-44
2024/04/02 10:34:08;;;;;;;6.05;3.25;;;;;;;18.39;53.33;98806.19;4990140;28;20046;-44
2024/04/02 10:36:35;;;;;;;5.03;3.80;;;;;;;18.53;53.06;98808.03;4987546;28;20046;-43
2024/04/02 10:39:01;;;;;;;8.35;4.93;;;;;;;18.75;53.19;98802.41;4991355;28;20057;-47
2024/04/02 10:41:34;;;;;;;7.38;4.43;;;;;;;18.75;51.09;98805.03;4979061;28;20085;-44
2024/04/02 10:44:00;;;;;;;3.55;3.17;;;;;;;18.78;51.70;98803.19;4997536;28;20422;-45
2024/04/02 10:46:27;;;;;;;3.67;3.38;;;;;;;18.86;51.74;98812.31;4997784;28;20060;-44
2024/04/02 10:48:57;;;;;;;3.53;3.17;;;;;;;18.97;51.75;98811.69;4979001;28;20057;-46
2024/04/02 10:51:25;;;;;;;4.18;2.83;;;;;;;18.99;51.54;98808.97;4965800;28;20042;-45
2024/04/02 10:53:52;;;;;;;6.53;4.00;;;;;;;18.98;51.87;98813.38;4985407;28;20050;-45
2024/04/02 10:56:19;;;;;;;9.65;3.92;;;;;;;19.05;50.89;98815.66;4961193;28;20522;-47
2024/04/02 10:58:44;;;;;;;19.80;6.80;;;;;;;18.73;50.11;98814.78;4966661;28;20435;-46
2024/04/02 11:01:12;;;;;;;10.27;4.90;;;;;;;18.47;50.44;98821.47;4983759;28;20053;-45
2024/04/02 11:03:38;;;;;;;11.07;5.22;;;;;;;18.20;50.95;98825.53;4979316;28;20046;-44
2024/04/02 11:06:04;;;;;;;15.38;6.57;;;;;;;18.03;51.04;98830.81;4985468;28;20051;-45
2024/04/02 11:08:30;;;;;;;3.53;2.78;;;;;;;17.81;51.92;98834.56;4974673;28;20100;-44
2024/04/02 11:10:56;;;;;;;4.47;2.50;;;;;;;17.59;51.38;98846.13;4962140;28;20751;-43
2024/04/02 11:13:25;;;;;;;8.48;4.05;;;;;;;17.45;52.20;98847.69;4977205;28;20634;-43
2024/04/02 11:15:51;;;;;;;3.78;3.35;;;;;;;17.39;52.54;98837.53;4974542;28;20062;-42
2024/04/02 11:18:22;;;;;;;7.13;4.63;;;;;;;17.55;52.35;98841.97;4975602;28;20130;-48
2024/04/02 11:20:47;;;;;;;5.90;5.38;;;;;;;17.78;52.30;98839.94;4978677;28;20061;-43
2024/04/02 11:26:18;;;;;;;3.97;3.03;;;;;;;17.99;50.64;98857.16;4964075;28;20423;-45
2024/04/02 11:28:43;;;;;;;2.95;2.75;;;;;;;17.75;50.79;98861.91;4980497;28;20058;-43
2024/04/02 11:31:11;;;;;;;3.42;0.85;;;;;;;17.44;50.38;98856.47;4979439;28;20479;-43
2024/04/02 11:33:38;;;;;;;3.78;3.47;;;;;;;17.21;51.07;98876.78;4993220;28;20104;-45
2024/04/02 11:36:05;;;;;;;3.65;3.35;;;;;;;17.03;51.12;98872.41;4962789;28;20508;-44
2024/04/02 11:38:31;;;;;;;3.55;2.45;;;;;;;17.09;52.26;98872.13;4978589;28;20716;-42
2024/04/02 11:40:57;;;;;;;3.08;1.35;;;;;;;17.18;51.44;98866.47;4980440;28;21241;-43